createdAt,value
2022-10-05T00:00:58.471Z,4.20
2022-10-05T00:03:33.467Z,4.00
2022-10-05T00:06:01.660Z,4.20
2022-10-05T00:08:33.805Z,4.10
2022-10-05T00:11:02.012Z,3.63
2022-10-05T00:13:31.575Z,3.70
2022-10-05T00:16:05.848Z,3.90
2022-10-05T00:18:35.008Z,4.03
2022-10-05T00:21:03.250Z,3.57
2022-10-05T00:23:32.780Z,3.70
2022-10-05T00:26:07.330Z,3.40
2022-10-05T00:28:35.274Z,4.30
2022-10-05T00:31:03.052Z,3.70
2022-10-05T00:33:31.862Z,3.97
2022-10-05T00:36:01.041Z,3.77
2022-10-05T00:38:29.628Z,3.37
2022-10-05T00:41:07.742Z,3.90
2022-10-05T00:43:56.059Z,3.40
2022-10-05T00:46:27.346Z,3.77
2022-10-05T00:49:03.285Z,3.60
2022-10-05T00:51:36.831Z,3.43
2022-10-05T00:54:18.942Z,3.60
2022-10-05T00:57:18.666Z,2.97
2022-10-05T00:59:56.284Z,3.63
2022-10-05T01:02:36.779Z,3.50
2022-10-05T01:05:11.036Z,2.97
2022-10-05T01:07:44.910Z,3.63
2022-10-05T01:10:23.821Z,2.83
2022-10-05T01:13:01.006Z,3.23
2022-10-05T01:15:34.929Z,3.27
2022-10-05T01:18:08.289Z,3.43
2022-10-05T01:20:47.995Z,3.20
2022-10-05T01:23:52.047Z,3.00
2022-10-05T01:26:48.666Z,3.00
2022-10-05T01:29:21.749Z,3.40
2022-10-05T01:31:57.005Z,3.07
2022-10-05T01:34:33.423Z,2.60
2022-10-05T01:37:05.199Z,2.90
2022-10-05T01:39:43.561Z,2.73
2022-10-05T01:42:20.338Z,2.70
2022-10-05T01:44:54.314Z,2.40
2022-10-05T01:47:28.358Z,3.10
2022-10-05T01:50:02.317Z,2.70
2022-10-05T01:52:39.437Z,2.80
2022-10-05T01:55:18.567Z,2.30
2022-10-05T01:58:03.477Z,2.70
2022-10-05T02:00:36.798Z,2.40
2022-10-05T02:03:11.489Z,2.50
2022-10-05T02:05:45.678Z,2.40
2022-10-05T02:08:16.715Z,2.67
2022-10-05T02:10:50.651Z,2.70
2022-10-05T02:13:23.677Z,2.50
2022-10-05T02:15:57.956Z,2.70
2022-10-05T02:18:30.784Z,2.50
2022-10-05T02:21:01.356Z,2.00
2022-10-05T02:23:34.293Z,2.77
2022-10-05T02:26:02.738Z,2.57
2022-10-05T02:28:35.749Z,2.47
2022-10-05T02:31:09.296Z,2.50
2022-10-05T02:33:37.534Z,2.60
2022-10-05T02:36:14.431Z,2.47
2022-10-05T02:38:56.877Z,2.37
2022-10-05T02:41:36.713Z,2.83
2022-10-05T02:44:14.628Z,2.53
2022-10-05T02:46:50.980Z,2.87
2022-10-05T02:49:29.138Z,2.60
2022-10-05T02:52:04.905Z,2.97
2022-10-05T02:54:43.514Z,2.63
2022-10-05T02:57:17.391Z,2.00
2022-10-05T02:59:49.802Z,2.47
2022-10-05T03:02:23.419Z,2.30
2022-10-05T03:04:57.847Z,2.17
2022-10-05T03:07:31.628Z,2.20
2022-10-05T03:10:07.331Z,2.33
2022-10-05T03:12:53.727Z,2.00
2022-10-05T03:15:50.528Z,2.20
2022-10-05T03:18:31.076Z,2.67
2022-10-05T03:21:07.487Z,2.30
2022-10-05T03:23:47.866Z,2.57
2022-10-05T03:26:30.655Z,2.53
2022-10-05T03:29:03.332Z,2.33
2022-10-05T03:31:37.613Z,2.40
2022-10-05T03:34:12.233Z,2.70
2022-10-05T03:36:47.543Z,2.50
2022-10-05T03:39:24.777Z,1.93
2022-10-05T03:41:59.292Z,3.10
2022-10-05T03:44:39.452Z,2.50
2022-10-05T03:47:14.269Z,2.20
2022-10-05T03:49:53.533Z,2.00
2022-10-05T03:52:26.740Z,2.30
2022-10-05T03:55:00.772Z,2.20
2022-10-05T03:57:32.353Z,1.97
2022-10-05T04:00:04.633Z,1.97
2022-10-05T04:02:37.716Z,2.10
2022-10-05T04:05:15.236Z,2.50
2022-10-05T04:07:48.428Z,2.50
2022-10-05T04:10:23.014Z,2.20
2022-10-05T04:12:55.840Z,2.27
2022-10-05T04:15:30.873Z,1.77
2022-10-05T04:18:03.774Z,1.80
2022-10-05T04:20:39.649Z,2.10
2022-10-05T04:23:18.376Z,2.30
2022-10-05T04:25:49.641Z,2.27
2022-10-05T04:28:29.649Z,2.00
2022-10-05T04:31:01.439Z,2.23
2022-10-05T04:33:29.253Z,2.20
2022-10-05T04:36:14.865Z,2.13
2022-10-05T04:38:58.455Z,2.10
2022-10-05T04:41:45.529Z,2.17
2022-10-05T04:44:23.988Z,2.30
2022-10-05T04:47:09.246Z,2.10
2022-10-05T04:49:57.567Z,1.90
2022-10-05T04:52:36.560Z,1.80
2022-10-05T04:55:15.488Z,1.90
2022-10-05T04:57:49.927Z,1.80
2022-10-05T05:00:24.062Z,2.23
2022-10-05T05:03:08.264Z,2.27
2022-10-05T05:06:05.353Z,2.10
2022-10-05T05:08:51.156Z,1.90
2022-10-05T05:11:29.854Z,2.00
2022-10-05T05:14:28.047Z,1.87
2022-10-05T05:17:12.981Z,1.77
2022-10-05T05:19:50.790Z,1.97
2022-10-05T05:22:26.735Z,2.20
2022-10-05T05:25:11.003Z,2.50
2022-10-05T05:27:43.073Z,1.83
2022-10-05T05:30:21.230Z,2.33
2022-10-05T05:33:02.073Z,1.90
2022-10-05T05:35:49.177Z,2.23
2022-10-05T05:38:28.493Z,2.70
2022-10-05T05:41:07.967Z,2.33
2022-10-05T05:43:53.958Z,2.90
2022-10-05T05:46:45.038Z,2.10
2022-10-05T05:49:19.634Z,2.73
2022-10-05T05:51:53.173Z,3.00
2022-10-05T05:54:31.476Z,3.60
2022-10-05T05:57:10.797Z,3.53
2022-10-05T05:59:49.632Z,3.00
2022-10-05T06:02:20.972Z,2.60
2022-10-05T06:04:54.847Z,3.03
2022-10-05T06:07:30.189Z,2.53
2022-10-05T06:10:04.640Z,2.60
2022-10-05T06:12:38.505Z,2.30
2022-10-05T06:15:18.089Z,2.63
2022-10-05T06:17:52.641Z,2.40
2022-10-05T06:20:26.406Z,2.40
2022-10-05T06:22:56.719Z,2.17
2022-10-05T06:25:31.350Z,2.60
2022-10-05T06:28:04.662Z,2.10
2022-10-05T06:30:44.192Z,2.53
2022-10-05T06:33:23.737Z,2.53
2022-10-05T06:36:03.980Z,2.27
2022-10-05T06:39:14.397Z,4.53
2022-10-05T06:41:57.118Z,2.80
2022-10-05T06:44:31.297Z,2.27
2022-10-05T06:47:08.369Z,2.20
2022-10-05T06:49:46.331Z,1.80
2022-10-05T06:52:23.018Z,2.87
2022-10-05T06:55:04.022Z,2.53
2022-10-05T06:57:46.421Z,2.30
2022-10-05T07:00:20.102Z,2.30
2022-10-05T07:02:55.748Z,2.50
2022-10-05T07:05:45.843Z,2.47
2022-10-05T07:08:18.556Z,2.30
2022-10-05T07:10:59.721Z,2.90
2022-10-05T07:13:47.424Z,2.30
2022-10-05T07:16:25.487Z,2.63
2022-10-05T07:19:10.049Z,2.67
2022-10-05T07:21:45.847Z,2.40
2022-10-05T07:24:29.090Z,2.67
2022-10-05T07:27:08.240Z,2.20
2022-10-05T07:29:43.885Z,2.50
2022-10-05T07:32:23.052Z,2.07
2022-10-05T07:34:59.476Z,2.07
2022-10-05T07:37:53.730Z,1.57
2022-10-05T07:40:26.661Z,1.50
2022-10-05T07:43:03.095Z,1.70
2022-10-05T07:45:35.559Z,1.57
2022-10-05T07:48:13.164Z,1.60
2022-10-05T07:50:50.787Z,1.50
2022-10-05T07:53:24.635Z,1.80
2022-10-05T07:55:55.165Z,1.50
2022-10-05T07:58:29.404Z,1.07
2022-10-05T08:01:09.192Z,1.50
2022-10-05T08:03:48.105Z,1.53
2022-10-05T08:06:38.574Z,1.60
2022-10-05T08:09:15.547Z,1.23
2022-10-05T08:11:50.990Z,1.50
2022-10-05T08:14:29.509Z,1.60
2022-10-05T08:17:01.295Z,1.17
2022-10-05T08:19:38.158Z,3.13
2022-10-05T08:22:10.426Z,1.60
2022-10-05T08:24:44.285Z,1.30
2022-10-05T08:27:18.753Z,1.33
2022-10-05T08:29:55.329Z,1.30
2022-10-05T08:32:26.655Z,1.27
2022-10-05T08:35:02.503Z,1.57
2022-10-05T08:37:35.389Z,1.33
2022-10-05T08:40:30.006Z,1.17
2022-10-05T08:43:15.186Z,1.07
2022-10-05T08:46:10.434Z,1.07
2022-10-05T08:49:13.063Z,1.10
2022-10-05T08:52:10.598Z,1.23
2022-10-05T08:55:30.596Z,1.10
2022-10-05T08:58:22.814Z,0.80
2022-10-05T09:00:59.610Z,0.90
2022-10-05T09:04:00.856Z,0.90
2022-10-05T09:06:54.713Z,0.80
2022-10-05T09:10:02.070Z,0.90
2022-10-05T09:13:05.820Z,0.97
2022-10-05T09:15:56.246Z,0.90
2022-10-05T09:19:15.104Z,1.20
2022-10-05T09:21:45.181Z,0.90
2022-10-05T09:24:48.375Z,1.23
2022-10-05T09:27:18.184Z,0.93
2022-10-05T09:30:27.961Z,0.90
2022-10-05T09:33:14.554Z,1.40
2022-10-05T09:36:13.056Z,1.40
2022-10-05T09:39:14.819Z,1.10
2022-10-05T09:42:08.252Z,1.23
2022-10-05T09:45:22.612Z,1.33
2022-10-05T09:48:16.369Z,1.23
2022-10-05T09:51:34.232Z,1.00
2022-10-05T09:55:05.414Z,1.03
2022-10-05T09:58:03.232Z,1.00
2022-10-05T10:00:51.514Z,1.30
2022-10-05T10:03:50.794Z,0.90
2022-10-05T10:06:34.992Z,1.20
2022-10-05T10:09:21.789Z,1.13
2022-10-05T10:12:12.185Z,0.80
2022-10-05T10:15:25.738Z,1.00
2022-10-05T10:18:13.116Z,1.10
2022-10-05T10:20:59.768Z,1.10
2022-10-05T10:23:46.146Z,1.33
2022-10-05T10:26:49.114Z,0.90
2022-10-05T10:29:52.949Z,1.00
2022-10-05T10:33:02.386Z,0.90
2022-10-05T10:35:35.882Z,1.17
2022-10-05T10:38:27.628Z,1.37
2022-10-05T10:41:14.267Z,1.00
2022-10-05T10:44:06.781Z,1.30
2022-10-05T10:46:40.523Z,1.30
2022-10-05T10:49:26.193Z,0.97
2022-10-05T10:52:24.616Z,0.93
2022-10-05T10:55:12.130Z,1.00
2022-10-05T10:57:55.738Z,1.10
2022-10-05T11:00:35.029Z,1.07
2022-10-05T11:03:22.594Z,0.90
2022-10-05T11:06:32.769Z,1.10
2022-10-05T11:09:12.241Z,1.03
2022-10-05T11:12:17.701Z,1.17
2022-10-05T11:15:29.902Z,1.03
2022-10-05T11:18:16.425Z,1.20
2022-10-05T11:21:17.496Z,1.40
2022-10-05T11:24:42.464Z,1.10
2022-10-05T11:27:40.938Z,1.10
2022-10-05T11:30:51.325Z,0.97
2022-10-05T11:33:50.246Z,1.27
2022-10-05T11:36:41.590Z,1.20
2022-10-05T11:39:30.253Z,1.30
2022-10-05T11:42:21.632Z,1.00
2022-10-05T11:45:14.937Z,1.10
2022-10-05T11:48:00.480Z,1.73
2022-10-05T11:50:39.641Z,1.27
2022-10-05T11:53:15.173Z,1.10
2022-10-05T11:55:45.825Z,1.10
2022-10-05T11:58:20.909Z,1.00
2022-10-05T12:00:54.830Z,1.07
2022-10-05T12:03:49.090Z,1.20
2022-10-05T12:06:26.190Z,1.10
2022-10-05T12:09:06.561Z,1.03
2022-10-05T12:11:52.295Z,1.10
2022-10-05T12:14:33.384Z,0.87
2022-10-05T12:17:06.434Z,0.87
2022-10-05T12:19:40.965Z,1.30
2022-10-05T12:22:16.966Z,0.93
2022-10-05T12:25:06.225Z,1.10
2022-10-05T12:27:39.290Z,1.10
2022-10-05T12:30:15.619Z,1.00
2022-10-05T12:33:01.608Z,1.00
2022-10-05T12:35:47.856Z,1.07
2022-10-05T12:38:24.810Z,0.80
2022-10-05T12:41:05.210Z,1.00
2022-10-05T12:43:45.690Z,0.93
2022-10-05T12:46:27.817Z,1.10
2022-10-05T12:49:11.573Z,1.27
2022-10-05T12:51:45.203Z,0.90
2022-10-05T12:54:22.243Z,1.07
2022-10-05T12:56:55.721Z,0.80
2022-10-05T12:59:35.141Z,1.20
2022-10-05T13:02:12.834Z,1.10
2022-10-05T13:04:50.138Z,1.13
2022-10-05T13:07:55.873Z,1.10
2022-10-05T13:10:33.683Z,0.90
2022-10-05T13:13:13.260Z,0.83
2022-10-05T13:15:49.711Z,1.03
2022-10-05T13:18:28.025Z,0.80
2022-10-05T13:21:04.438Z,0.87
2022-10-05T13:23:44.765Z,1.17
2022-10-05T13:26:17.535Z,1.23
2022-10-05T13:28:52.985Z,1.13
2022-10-05T13:31:24.686Z,0.80
2022-10-05T13:34:02.296Z,0.97
2022-10-05T13:36:41.688Z,1.10
2022-10-05T13:39:26.742Z,1.10
2022-10-05T13:41:59.590Z,0.97
2022-10-05T13:44:33.829Z,1.10
2022-10-05T13:47:05.797Z,1.00
2022-10-05T13:49:39.897Z,0.80
2022-10-05T13:52:20.889Z,0.80
2022-10-05T13:54:59.743Z,0.80
2022-10-05T13:57:44.937Z,1.30
2022-10-05T14:00:21.375Z,1.13
2022-10-05T14:02:56.401Z,1.00
2022-10-05T14:05:26.754Z,0.90
2022-10-05T14:07:57.095Z,1.17
2022-10-05T14:10:36.499Z,0.83
2022-10-05T14:13:20.760Z,0.93
2022-10-05T14:16:06.991Z,1.30
2022-10-05T14:18:38.047Z,0.83
2022-10-05T14:21:19.550Z,1.00
2022-10-05T14:23:47.431Z,1.07
2022-10-05T14:26:31.442Z,0.90
2022-10-05T14:29:02.187Z,0.93
2022-10-05T14:31:34.114Z,0.97
2022-10-05T14:34:31.806Z,1.00
2022-10-05T14:37:02.542Z,1.27
2022-10-05T14:39:34.841Z,0.87
2022-10-05T14:42:16.674Z,1.23
2022-10-05T14:44:45.607Z,1.07
2022-10-05T14:47:19.166Z,0.90
2022-10-05T14:50:10.494Z,1.20
2022-10-05T14:52:41.018Z,0.90
2022-10-05T14:55:50.533Z,1.07
2022-10-05T14:58:34.904Z,0.87
2022-10-05T15:01:13.580Z,0.90
2022-10-05T15:03:48.144Z,0.80
2022-10-05T15:06:25.049Z,0.67
2022-10-05T15:09:16.451Z,0.80
2022-10-05T15:11:50.243Z,1.00
2022-10-05T15:14:23.852Z,0.97
2022-10-05T15:16:53.930Z,1.10
2022-10-05T15:19:27.096Z,1.00
2022-10-05T15:22:07.293Z,0.97
2022-10-05T15:24:43.717Z,1.03
2022-10-05T15:27:26.101Z,0.90
2022-10-05T15:30:04.306Z,1.30
2022-10-05T15:32:43.392Z,1.00
2022-10-05T15:35:37.786Z,0.70
2022-10-05T15:38:21.130Z,1.10
2022-10-05T15:41:03.152Z,1.10
2022-10-05T15:43:40.668Z,1.10
2022-10-05T15:46:14.752Z,1.10
2022-10-05T15:48:49.743Z,1.20
2022-10-05T15:51:29.028Z,1.17
2022-10-05T15:54:22.921Z,1.20
2022-10-05T15:56:57.640Z,1.30
2022-10-05T15:59:34.318Z,1.20
2022-10-05T16:02:08.491Z,1.40
2022-10-05T16:04:49.818Z,1.50
2022-10-05T16:07:41.241Z,1.40
2022-10-05T16:10:17.411Z,1.00
2022-10-05T16:12:54.675Z,1.23
2022-10-05T16:15:28.315Z,1.20
2022-10-05T16:18:18.544Z,1.17
2022-10-05T16:20:52.083Z,1.40
2022-10-05T16:23:29.729Z,1.30
2022-10-05T16:26:11.559Z,1.23
2022-10-05T16:28:47.685Z,1.50
2022-10-05T16:31:22.915Z,1.80
2022-10-05T16:34:02.000Z,6.57
2022-10-05T16:36:48.954Z,6.20
2022-10-05T16:39:24.281Z,4.00
2022-10-05T16:41:59.496Z,3.97
2022-10-05T16:44:40.092Z,2.37
2022-10-05T16:47:31.654Z,2.40
2022-10-05T16:50:09.966Z,1.80
2022-10-05T16:52:41.064Z,1.90
2022-10-05T16:55:15.553Z,2.20
2022-10-05T16:57:51.296Z,2.80
2022-10-05T17:00:23.519Z,1.80
2022-10-05T17:03:11.923Z,1.43
2022-10-05T17:06:12.421Z,1.70
2022-10-05T17:09:06.726Z,1.77
2022-10-05T17:11:46.391Z,1.70
2022-10-05T17:14:33.589Z,2.03
2022-10-05T17:17:22.953Z,1.70
2022-10-05T17:20:05.350Z,1.87
2022-10-05T17:22:39.763Z,2.13
2022-10-05T17:25:18.239Z,1.67
2022-10-05T17:27:54.221Z,1.77
2022-10-05T17:30:39.501Z,1.50
2022-10-05T17:33:21.557Z,1.87
2022-10-05T17:35:56.828Z,2.00
2022-10-05T17:38:46.718Z,2.07
2022-10-05T17:41:20.316Z,2.20
2022-10-05T17:44:24.758Z,2.20
2022-10-05T17:46:55.918Z,1.97
2022-10-05T17:50:16.182Z,2.30
2022-10-05T17:53:02.600Z,1.80
2022-10-05T17:55:45.633Z,2.30
2022-10-05T17:59:01.005Z,2.10
2022-10-05T18:01:33.765Z,2.07
2022-10-05T18:04:34.374Z,2.00
2022-10-05T18:07:05.133Z,2.60
2022-10-05T18:09:37.504Z,2.40
2022-10-05T18:12:29.157Z,2.63
2022-10-05T18:15:11.681Z,2.13
2022-10-05T18:17:45.012Z,1.70
2022-10-05T18:20:31.276Z,2.47
2022-10-05T18:23:35.752Z,1.90
2022-10-05T18:26:09.328Z,2.40
2022-10-05T18:28:53.227Z,2.33
2022-10-05T18:31:32.940Z,3.20
2022-10-05T18:34:13.119Z,3.80
2022-10-05T18:36:59.799Z,4.07
2022-10-05T18:39:53.965Z,3.20
2022-10-05T18:42:31.191Z,3.77
2022-10-05T18:45:09.101Z,3.73
2022-10-05T18:47:45.041Z,3.10
2022-10-05T18:50:25.963Z,3.47
2022-10-05T18:53:10.706Z,3.10
2022-10-05T18:55:44.722Z,3.53
2022-10-05T18:58:18.126Z,3.20
2022-10-05T19:01:08.213Z,2.90
2022-10-05T19:03:43.779Z,3.07
2022-10-05T19:06:18.713Z,3.50
2022-10-05T19:08:58.090Z,2.97
2022-10-05T19:11:31.907Z,3.00
2022-10-05T19:14:11.519Z,3.30
2022-10-05T19:17:03.837Z,2.50
2022-10-05T19:19:43.831Z,3.10
2022-10-05T19:22:19.579Z,3.00
2022-10-05T19:25:05.236Z,3.27
2022-10-05T19:27:44.242Z,3.73
2022-10-05T19:30:25.020Z,3.30
2022-10-05T19:33:12.734Z,4.00
2022-10-05T19:35:57.987Z,3.30
2022-10-05T19:38:32.640Z,3.40
2022-10-05T19:41:12.200Z,3.07
2022-10-05T19:43:59.084Z,3.40
2022-10-05T19:46:51.174Z,3.90
2022-10-05T19:49:37.480Z,3.37
2022-10-05T19:52:13.446Z,3.07
2022-10-05T19:54:43.073Z,3.63
2022-10-05T19:57:17.843Z,3.17
2022-10-05T19:59:49.021Z,3.00
2022-10-05T20:02:17.892Z,3.17
2022-10-05T20:04:49.377Z,2.73
2022-10-05T20:07:21.470Z,3.30
2022-10-05T20:09:56.655Z,2.87
2022-10-05T20:12:51.507Z,3.10
2022-10-05T20:15:39.130Z,2.70
2022-10-05T20:18:56.438Z,2.40
2022-10-05T20:21:47.111Z,2.33
2022-10-05T20:24:17.162Z,2.37
2022-10-05T20:27:04.844Z,2.40
2022-10-05T20:29:36.271Z,2.50
2022-10-05T20:32:08.092Z,2.50
2022-10-05T20:34:37.338Z,2.63
2022-10-05T20:37:06.502Z,2.33
2022-10-05T20:39:34.248Z,2.43
2022-10-05T20:42:02.038Z,2.03
2022-10-05T20:44:30.454Z,2.30
2022-10-05T20:46:58.568Z,1.43
2022-10-05T20:49:27.007Z,2.50
2022-10-05T20:51:55.638Z,1.97
2022-10-05T20:54:25.910Z,2.10
2022-10-05T20:56:54.801Z,1.90
2022-10-05T20:59:23.341Z,1.83
2022-10-05T21:01:51.141Z,2.20
2022-10-05T21:04:20.365Z,2.17
2022-10-05T21:06:48.235Z,1.90
2022-10-05T21:09:19.437Z,2.00
2022-10-05T21:11:52.722Z,2.00
2022-10-05T21:14:20.555Z,2.17
2022-10-05T21:16:48.324Z,1.70
2022-10-05T21:19:16.381Z,1.63
2022-10-05T21:21:45.458Z,1.80
2022-10-05T21:24:14.812Z,1.60
2022-10-05T21:26:42.988Z,1.80
2022-10-05T21:29:13.119Z,1.97
2022-10-05T21:31:41.442Z,1.30
2022-10-05T21:34:09.440Z,1.80
2022-10-05T21:36:37.204Z,1.90
2022-10-05T21:39:04.988Z,1.80
2022-10-05T21:41:32.734Z,1.60
2022-10-05T21:44:00.527Z,1.63
2022-10-05T21:46:30.254Z,1.63
2022-10-05T21:48:58.116Z,1.40
2022-10-05T21:51:27.889Z,1.93
2022-10-05T21:53:58.750Z,1.70
2022-10-05T21:56:30.213Z,2.13
2022-10-05T21:58:58.737Z,1.77
2022-10-05T22:01:27.140Z,2.07
2022-10-05T22:03:56.822Z,1.50
2022-10-05T22:06:24.618Z,1.70
2022-10-05T22:08:52.397Z,1.70
2022-10-05T22:11:20.210Z,1.70
2022-10-05T22:13:49.699Z,1.60
2022-10-05T22:16:19.593Z,2.03
2022-10-05T22:18:47.647Z,1.57
2022-10-05T22:21:17.656Z,1.90
2022-10-05T22:23:46.610Z,2.10
2022-10-05T22:26:17.096Z,1.80
2022-10-05T22:28:46.659Z,1.87
2022-10-05T22:31:15.370Z,1.90
2022-10-05T22:33:43.180Z,1.77
2022-10-05T22:36:11.161Z,2.20
2022-10-05T22:38:40.253Z,1.70
2022-10-05T22:41:11.173Z,1.60
2022-10-05T22:43:39.057Z,1.77
2022-10-05T22:46:11.156Z,1.60
2022-10-05T22:48:39.129Z,1.83
2022-10-05T22:51:07.152Z,1.50
2022-10-05T22:53:35.023Z,1.50
2022-10-05T22:56:08.875Z,1.50
2022-10-05T23:01:20.487Z,1.60
2022-10-05T23:03:48.365Z,1.97
2022-10-05T23:06:18.150Z,1.90
2022-10-05T23:08:46.904Z,1.60
2022-10-05T23:11:18.237Z,1.60
2022-10-05T23:13:45.985Z,1.50
2022-10-05T23:16:15.733Z,1.80
2022-10-05T23:18:44.870Z,1.63
2022-10-05T23:21:12.633Z,1.80
2022-10-05T23:23:42.412Z,1.97
2022-10-05T23:26:11.799Z,1.30
2022-10-05T23:28:43.018Z,1.50
2022-10-05T23:31:11.023Z,1.60
2022-10-05T23:33:38.866Z,1.60
2022-10-05T23:36:08.669Z,1.60
2022-10-05T23:38:37.471Z,1.77
2022-10-05T23:41:06.124Z,1.40
2022-10-05T23:43:34.616Z,1.13
2022-10-05T23:46:04.308Z,1.50
2022-10-05T23:48:32.507Z,1.63
2022-10-05T23:51:01.144Z,1.30
2022-10-05T23:53:28.938Z,1.40
2022-10-05T23:55:57.155Z,1.20
2022-10-05T23:58:25.575Z,2.00
